sensor_id;sensor_type;location;lat;lon;timestamp;pressure;altitude;pressure_sealevel;temperature;humidity
35878;BME280;21982;49.804;24.072;2022-12-11T05:12:18;95119.00;;;-0.71;80.25
35878;BME280;21982;49.804;24.072;2022-12-11T05:14:44;95267.69;;;0.47;80.21
35878;BME280;21982;49.804;24.072;2022-12-11T05:17:10;95248.31;;;0.49;80.44
35878;BME280;21982;49.804;24.072;2022-12-11T05:19:35;95246.56;;;0.64;80.21
35878;BME280;21982;49.804;24.072;2022-12-11T05:22:00;95194.03;;;0.38;80.38
35878;BME280;21982;49.804;24.072;2022-12-11T05:24:26;95274.19;;;1.03;80.18
35878;BME280;21982;49.804;24.072;2022-12-11T05:26:51;95259.06;;;1.13;80.29
35878;BME280;21982;49.804;24.072;2022-12-11T05:29:17;95237.50;;;1.19;80.35
35878;BME280;21982;49.804;24.072;2022-12-11T05:31:42;95245.94;;;1.21;79.68
35878;BME280;21982;49.804;24.072;2022-12-11T05:34:07;95179.19;;;0.76;79.53
35878;BME280;21982;49.804;24.072;2022-12-11T05:36:33;95116.50;;;0.48;79.69
35878;BME280;21982;49.804;24.072;2022-12-11T05:39:00;95208.91;;;1.11;79.34
35878;BME280;21982;49.804;24.072;2022-12-11T05:41:29;95206.22;;;1.19;79.46
35878;BME280;21982;49.804;24.072;2022-12-11T05:43:54;95126.28;;;0.76;79.74
35878;BME280;21982;49.804;24.072;2022-12-11T05:46:26;95171.28;;;0.99;79.58
35878;BME280;21982;49.804;24.072;2022-12-11T05:48:55;95235.84;;;1.48;79.99
35878;BME280;21982;49.804;24.072;2022-12-11T05:51:21;95171.44;;;1.12;79.60
35878;BME280;21982;49.804;24.072;2022-12-11T05:53:50;95125.09;;;0.93;79.38
35878;BME280;21982;49.804;24.072;2022-12-11T05:56:24;95150.41;;;1.14;79.03
35878;BME280;21982;49.804;24.072;2022-12-11T05:58:51;95104.00;;;0.88;78.93
35878;BME280;21982;49.804;24.072;2022-12-11T06:03:58;95177.97;;;1.38;78.71
35878;BME280;21982;49.804;24.072;2022-12-11T06:06:25;95197.41;;;1.71;78.77
35878;BME280;21982;49.804;24.072;2022-12-11T06:08:55;95013.50;;;0.60;78.36
35878;BME280;21982;49.804;24.072;2022-12-11T06:11:22;95094.22;;;1.11;78.26
35878;BME280;21982;49.804;24.072;2022-12-11T06:13:48;95203.84;;;1.75;78.48
35878;BME280;21982;49.804;24.072;2022-12-11T06:16:13;95088.63;;;0.93;78.02
35878;BME280;21982;49.804;24.072;2022-12-11T06:18:41;95097.19;;;1.23;78.54
35878;BME280;21982;49.804;24.072;2022-12-11T06:21:25;95139.84;;;1.37;77.88
35878;BME280;21982;49.804;24.072;2022-12-11T06:23:53;94915.22;;;-0.18;78.29
35878;BME280;21982;49.804;24.072;2022-12-11T06:26:19;95166.75;;;1.58;78.31
35878;BME280;21982;49.804;24.072;2022-12-11T06:28:45;95080.72;;;0.86;78.09
35878;BME280;21982;49.804;24.072;2022-12-11T06:31:11;95166.69;;;1.52;78.43
35878;BME280;21982;49.804;24.072;2022-12-11T06:33:37;95020.69;;;0.44;78.04
35878;BME280;21982;49.804;24.072;2022-12-11T06:36:08;95182.47;;;1.65;77.68
35878;BME280;21982;49.804;24.072;2022-12-11T06:38:35;95188.94;;;1.69;78.64
35878;BME280;21982;49.804;24.072;2022-12-11T06:41:02;95116.22;;;1.23;78.00
35878;BME280;21982;49.804;24.072;2022-12-11T06:43:32;95207.25;;;1.76;78.48
35878;BME280;21982;49.804;24.072;2022-12-11T06:45:58;95115.31;;;1.31;77.45
35878;BME280;21982;49.804;24.072;2022-12-11T06:48:27;95132.66;;;1.39;78.03
35878;BME280;21982;49.804;24.072;2022-12-11T06:50:52;95007.56;;;0.66;77.45
35878;BME280;21982;49.804;24.072;2022-12-11T06:53:18;95186.81;;;1.79;77.41
35878;BME280;21982;49.804;24.072;2022-12-11T06:55:43;95185.84;;;1.80;77.72
35878;BME280;21982;49.804;24.072;2022-12-11T06:58:09;95216.78;;;1.83;77.56
35878;BME280;21982;49.804;24.072;2022-12-11T07:00:36;95114.25;;;1.47;77.11
35878;BME280;21982;49.804;24.072;2022-12-11T07:03:09;94775.50;;;-0.60;76.81
35878;BME280;21982;49.804;24.072;2022-12-11T07:05:35;95201.00;;;1.91;76.93
35878;BME280;21982;49.804;24.072;2022-12-11T07:08:02;95158.50;;;1.97;77.19
35878;BME280;21982;49.804;24.072;2022-12-11T07:10:31;95166.16;;;1.99;76.97
35878;BME280;21982;49.804;24.072;2022-12-11T07:12:59;95160.19;;;2.05;76.62
35878;BME280;21982;49.804;24.072;2022-12-11T07:15:25;94994.31;;;1.04;76.68
35878;BME280;21982;49.804;24.072;2022-12-11T07:17:50;95136.25;;;2.01;76.64
35878;BME280;21982;49.804;24.072;2022-12-11T07:20:16;94891.06;;;0.39;76.27
35878;BME280;21982;49.804;24.072;2022-12-11T07:22:48;94755.25;;;-0.64;76.86
35878;BME280;21982;49.804;24.072;2022-12-11T07:25:13;95130.41;;;1.99;76.63
35878;BME280;21982;49.804;24.072;2022-12-11T07:27:42;95042.91;;;1.54;76.22
35878;BME280;21982;49.804;24.072;2022-12-11T07:30:08;95126.81;;;2.00;77.05
35878;BME280;21982;49.804;24.072;2022-12-11T07:37:44;95043.41;;;1.43;76.48
35878;BME280;21982;49.804;24.072;2022-12-11T07:40:12;95081.84;;;1.77;76.64
35878;BME280;21982;49.804;24.072;2022-12-11T07:42:38;95117.84;;;2.10;76.97
35878;BME280;21982;49.804;24.072;2022-12-11T07:45:04;94736.13;;;-0.42;75.73
35878;BME280;21982;49.804;24.072;2022-12-11T07:47:30;94996.81;;;1.33;75.93
35878;BME280;21982;49.804;24.072;2022-12-11T07:49:55;95120.84;;;2.07;76.41
35878;BME280;21982;49.804;24.072;2022-12-11T07:52:21;94821.50;;;0.26;76.51
35878;BME280;21982;49.804;24.072;2022-12-11T07:54:46;95091.28;;;1.78;76.43
35878;BME280;21982;49.804;24.072;2022-12-11T07:57:11;95101.47;;;2.22;76.11
35878;BME280;21982;49.804;24.072;2022-12-11T07:59:37;94975.88;;;1.48;76.32
35878;BME280;21982;49.804;24.072;2022-12-11T08:02:03;94931.16;;;1.23;76.03
35878;BME280;21982;49.804;24.072;2022-12-11T08:04:33;95090.06;;;2.30;76.44
35878;BME280;21982;49.804;24.072;2022-12-11T08:07:05;94565.53;;;-1.07;75.83
35878;BME280;21982;49.804;24.072;2022-12-11T08:09:32;95091.31;;;2.34;76.17
35878;BME280;21982;49.804;24.072;2022-12-11T08:12:00;94561.78;;;-0.83;76.12
35878;BME280;21982;49.804;24.072;2022-12-11T08:14:25;94891.91;;;1.31;75.83
35878;BME280;21982;49.804;24.072;2022-12-11T08:16:54;94762.97;;;0.44;75.58
35878;BME280;21982;49.804;24.072;2022-12-11T08:19:21;94722.28;;;0.15;75.75
35878;BME280;21982;49.804;24.072;2022-12-11T08:21:46;94700.59;;;0.08;75.68
35878;BME280;21982;49.804;24.072;2022-12-11T08:24:12;95060.25;;;2.52;75.54
35878;BME280;21982;49.804;24.072;2022-12-11T08:26:40;95064.06;;;2.50;75.50
35878;BME280;21982;49.804;24.072;2022-12-11T08:29:05;94848.44;;;1.11;74.68
35878;BME280;21982;49.804;24.072;2022-12-11T08:31:31;94879.38;;;1.20;74.79
35878;BME280;21982;49.804;24.072;2022-12-11T08:33:57;94984.09;;;1.73;74.97
35878;BME280;21982;49.804;24.072;2022-12-11T08:36:23;95032.63;;;1.95;75.43
35878;BME280;21982;49.804;24.072;2022-12-11T08:38:49;94564.16;;;-1.03;74.64
35878;BME280;21982;49.804;24.072;2022-12-11T08:41:20;94996.53;;;1.71;75.29
35878;BME280;21982;49.804;24.072;2022-12-11T08:43:46;94765.06;;;0.55;74.90
35878;BME280;21982;49.804;24.072;2022-12-11T08:46:13;94779.88;;;0.54;75.13
35878;BME280;21982;49.804;24.072;2022-12-11T08:48:40;94664.13;;;0.01;74.97
35878;BME280;21982;49.804;24.072;2022-12-11T08:51:10;94701.09;;;0.18;74.65
35878;BME280;21982;49.804;24.072;2022-12-11T08:53:36;95032.28;;;2.40;74.64
35878;BME280;21982;49.804;24.072;2022-12-11T08:56:05;94492.94;;;-0.94;74.54
35878;BME280;21982;49.804;24.072;2022-12-11T08:58:30;95067.03;;;2.40;74.71
35878;BME280;21982;49.804;24.072;2022-12-11T09:00:57;94918.47;;;1.76;74.93
35878;BME280;21982;49.804;24.072;2022-12-11T09:03:23;94798.13;;;0.82;74.37
35878;BME280;21982;49.804;24.072;2022-12-11T09:05:49;94632.25;;;-0.29;74.88
35878;BME280;21982;49.804;24.072;2022-12-11T09:08:14;94997.94;;;2.01;74.70
35878;BME280;21982;49.804;24.072;2022-12-11T09:10:40;95046.97;;;2.47;74.68
35878;BME280;21982;49.804;24.072;2022-12-11T09:13:06;94956.94;;;1.95;74.57
35878;BME280;21982;49.804;24.072;2022-12-11T09:15:32;94752.97;;;0.75;74.82
35878;BME280;21982;49.804;24.072;2022-12-11T09:17:57;94816.78;;;1.14;74.30
35878;BME280;21982;49.804;24.072;2022-12-11T09:20:23;94863.84;;;1.33;74.40
35878;BME280;21982;49.804;24.072;2022-12-11T09:22:48;94914.31;;;1.54;74.30
35878;BME280;21982;49.804;24.072;2022-12-11T09:25:14;95013.59;;;2.43;74.47
35878;BME280;21982;49.804;24.072;2022-12-11T09:27:39;95063.22;;;2.36;74.69
35878;BME280;21982;49.804;24.072;2022-12-11T09:30:05;94828.78;;;1.08;74.39
35878;BME280;21982;49.804;24.072;2022-12-11T09:32:31;94791.22;;;0.96;74.31
35878;BME280;21982;49.804;24.072;2022-12-11T09:34:56;94934.91;;;2.05;74.61
35878;BME280;21982;49.804;24.072;2022-12-11T09:37:21;94998.97;;;2.48;74.63
35878;BME280;21982;49.804;24.072;2022-12-11T09:39:47;94736.41;;;0.83;74.58
35878;BME280;21982;49.804;24.072;2022-12-11T09:45:02;95011.78;;;2.43;74.64
35878;BME280;21982;49.804;24.072;2022-12-11T09:47:55;95006.38;;;2.45;74.07
35878;BME280;21982;49.804;24.072;2022-12-11T09:50:26;94804.00;;;1.19;74.50
35878;BME280;21982;49.804;24.072;2022-12-11T09:55:34;94793.75;;;1.17;74.32
35878;BME280;21982;49.804;24.072;2022-12-11T09:58:34;94995.50;;;2.34;73.47
35878;BME280;21982;49.804;24.072;2022-12-11T10:01:37;94984.34;;;2.19;74.25
35878;BME280;21982;49.804;24.072;2022-12-11T10:07:15;95000.09;;;1.98;73.98
35878;BME280;21982;49.804;24.072;2022-12-11T10:12:50;94997.31;;;1.99;74.55
35878;BME280;21982;49.804;24.072;2022-12-11T10:18:17;94884.03;;;0.97;74.95
35878;BME280;21982;49.804;24.072;2022-12-11T10:20:46;94964.97;;;1.66;75.41
35878;BME280;21982;49.804;24.072;2022-12-11T10:23:20;95016.56;;;1.98;74.38
35878;BME280;21982;49.804;24.072;2022-12-11T10:26:01;94767.00;;;0.46;74.39
35878;BME280;21982;49.804;24.072;2022-12-11T10:28:28;95049.38;;;2.08;74.76
35878;BME280;21982;49.804;24.072;2022-12-11T10:31:10;94901.19;;;1.41;74.42
35878;BME280;21982;49.804;24.072;2022-12-11T10:34:04;95017.25;;;2.14;74.46
35878;BME280;21982;49.804;24.072;2022-12-11T10:36:36;94743.19;;;0.49;75.09
35878;BME280;21982;49.804;24.072;2022-12-11T10:42:15;94538.69;;;-1.14;73.64
35878;BME280;21982;49.804;24.072;2022-12-11T10:44:57;94949.94;;;1.68;74.23
35878;BME280;21982;49.804;24.072;2022-12-11T10:47:24;95003.53;;;1.98;74.32
35878;BME280;21982;49.804;24.072;2022-12-11T10:49:55;95000.09;;;1.98;73.88
35878;BME280;21982;49.804;24.072;2022-12-11T10:55:17;94747.63;;;0.06;73.84
35878;BME280;21982;49.804;24.072;2022-12-11T10:57:45;94716.84;;;-0.12;74.70
35878;BME280;21982;49.804;24.072;2022-12-11T11:00:37;94999.34;;;1.76;73.85
35878;BME280;21982;49.804;24.072;2022-12-11T11:03:05;94669.94;;;-0.61;74.15
35878;BME280;21982;49.804;24.072;2022-12-11T11:05:34;94546.06;;;-1.32;73.93
35878;BME280;21982;49.804;24.072;2022-12-11T11:08:13;95003.44;;;1.57;73.95
35878;BME280;21982;49.804;24.072;2022-12-11T11:10:53;94998.78;;;1.53;74.43
35878;BME280;21982;49.804;24.072;2022-12-11T11:13:21;94970.06;;;1.25;74.18
35878;BME280;21982;49.804;24.072;2022-12-11T11:15:47;94880.56;;;0.69;74.83
35878;BME280;21982;49.804;24.072;2022-12-11T11:18:23;95018.22;;;1.50;74.32
35878;BME280;21982;49.804;24.072;2022-12-11T11:20:50;94718.13;;;-0.44;74.13
35878;BME280;21982;49.804;24.072;2022-12-11T11:23:17;94980.78;;;1.15;74.13
35878;BME280;21982;49.804;24.072;2022-12-11T11:31:11;94706.00;;;-0.87;74.53
35878;BME280;21982;49.804;24.072;2022-12-11T11:33:58;95046.81;;;1.01;74.27
35878;BME280;21982;49.804;24.072;2022-12-11T11:36:33;95030.56;;;0.99;74.31
35878;BME280;21982;49.804;24.072;2022-12-11T11:44:21;94938.53;;;0.56;73.84
35878;BME280;21982;49.804;24.072;2022-12-11T11:46:59;94541.84;;;-1.99;73.55
35878;BME280;21982;49.804;24.072;2022-12-11T11:49:49;95057.88;;;1.24;73.41
35878;BME280;21982;49.804;24.072;2022-12-11T11:57:42;95071.81;;;1.31;73.83
35878;BME280;21982;49.804;24.072;2022-12-11T12:00:22;94862.41;;;-0.18;73.31
35878;BME280;21982;49.804;24.072;2022-12-11T12:02:56;95027.47;;;1.10;73.88
35878;BME280;21982;49.804;24.072;2022-12-11T12:05:42;95027.34;;;1.18;73.89
35878;BME280;21982;49.804;24.072;2022-12-11T12:10:53;95075.28;;;1.39;73.29
35878;BME280;21982;49.804;24.072;2022-12-11T12:21:51;94958.91;;;0.52;72.81
35878;BME280;21982;49.804;24.072;2022-12-11T12:24:48;94912.50;;;0.20;72.70
35878;BME280;21982;49.804;24.072;2022-12-11T12:27:21;94889.22;;;0.33;72.49
35878;BME280;21982;49.804;24.072;2022-12-11T12:40:31;95082.22;;;1.31;72.95
35878;BME280;21982;49.804;24.072;2022-12-11T12:43:12;95076.66;;;1.34;72.71
35878;BME280;21982;49.804;24.072;2022-12-11T12:45:53;95074.78;;;1.28;72.18
35878;BME280;21982;49.804;24.072;2022-12-11T12:48:23;95092.41;;;1.26;72.78
35878;BME280;21982;49.804;24.072;2022-12-11T12:50:49;95074.78;;;1.28;72.80
35878;BME280;21982;49.804;24.072;2022-12-11T12:53:18;94882.03;;;-0.01;72.38
35878;BME280;21982;49.804;24.072;2022-12-11T12:55:46;94881.34;;;-0.10;72.04
35878;BME280;21982;49.804;24.072;2022-12-11T13:01:09;95002.72;;;0.63;72.27
35878;BME280;21982;49.804;24.072;2022-12-11T13:04:22;94997.81;;;0.54;71.89
35878;BME280;21982;49.804;24.072;2022-12-11T13:06:51;95098.94;;;1.01;72.56
35878;BME280;21982;49.804;24.072;2022-12-11T13:09:25;94996.47;;;0.43;71.94
35878;BME280;21982;49.804;24.072;2022-12-11T13:11:53;95088.13;;;1.04;72.41
35878;BME280;21982;49.804;24.072;2022-12-11T13:14:25;94822.13;;;-0.73;72.07
35878;BME280;21982;49.804;24.072;2022-12-11T13:19:45;94697.13;;;-1.81;72.44
35878;BME280;21982;49.804;24.072;2022-12-11T13:25:01;94788.78;;;-1.14;71.84
35878;BME280;21982;49.804;24.072;2022-12-11T13:27:41;95149.44;;;0.85;72.55
35878;BME280;21982;49.804;24.072;2022-12-11T13:33:00;95136.63;;;0.69;72.37
35878;BME280;21982;49.804;24.072;2022-12-11T13:35:27;94726.41;;;-1.95;72.79
35878;BME280;21982;49.804;24.072;2022-12-11T13:37:55;94741.41;;;-1.83;72.68
35878;BME280;21982;49.804;24.072;2022-12-11T13:40:27;94599.41;;;-2.79;72.46
35878;BME280;21982;49.804;24.072;2022-12-11T13:42:58;95092.41;;;0.17;72.73
35878;BME280;21982;49.804;24.072;2022-12-11T13:45:42;94969.63;;;-0.60;72.36
35878;BME280;21982;49.804;24.072;2022-12-11T13:48:36;94562.28;;;-3.17;72.42
35878;BME280;21982;49.804;24.072;2022-12-11T13:51:03;94540.66;;;-3.24;72.17
35878;BME280;21982;49.804;24.072;2022-12-11T13:53:29;94946.81;;;-0.88;72.49
35878;BME280;21982;49.804;24.072;2022-12-11T13:55:57;94588.72;;;-3.07;72.34
35878;BME280;21982;49.804;24.072;2022-12-11T13:58:24;95160.06;;;0.54;72.68
35878;BME280;21982;49.804;24.072;2022-12-11T14:01:03;95162.94;;;0.59;72.78
35878;BME280;21982;49.804;24.072;2022-12-11T14:03:32;95175.31;;;0.57;72.59
35878;BME280;21982;49.804;24.072;2022-12-11T14:06:00;95231.34;;;0.53;73.12
35878;BME280;21982;49.804;24.072;2022-12-11T14:08:34;94803.28;;;-2.03;72.20
35878;BME280;21982;49.804;24.072;2022-12-11T14:11:00;94840.63;;;-2.12;72.47
35878;BME280;21982;49.804;24.072;2022-12-11T14:13:33;95151.22;;;0.26;72.75
35878;BME280;21982;49.804;24.072;2022-12-11T14:16:01;95205.38;;;0.45;72.42
35878;BME280;21982;49.804;24.072;2022-12-11T14:18:32;95103.66;;;-0.20;72.54
35878;BME280;21982;49.804;24.072;2022-12-11T14:21:01;94721.31;;;-2.80;72.67
35878;BME280;21982;49.804;24.072;2022-12-11T14:23:34;95050.47;;;-1.01;72.72
35878;BME280;21982;49.804;24.072;2022-12-11T14:28:46;95242.63;;;0.31;72.73
35878;BME280;21982;49.804;24.072;2022-12-11T14:31:17;94653.44;;;-3.46;72.43
35878;BME280;21982;49.804;24.072;2022-12-11T14:33:52;94646.91;;;-3.73;72.51
35878;BME280;21982;49.804;24.072;2022-12-11T14:36:19;94826.28;;;-2.70;72.79
35878;BME280;21982;49.804;24.072;2022-12-11T14:38:52;94950.56;;;-1.98;72.30
35878;BME280;21982;49.804;24.072;2022-12-11T14:41:38;94723.66;;;-3.49;72.58
35878;BME280;21982;49.804;24.072;2022-12-11T14:44:10;95061.44;;;-1.45;72.96
35878;BME280;21982;49.804;24.072;2022-12-11T14:46:40;94801.00;;;-3.07;72.61
35878;BME280;21982;49.804;24.072;2022-12-11T14:49:19;95239.81;;;-0.36;72.81
35878;BME280;21982;49.804;24.072;2022-12-11T14:51:48;94707.06;;;-3.87;72.89
35878;BME280;21982;49.804;24.072;2022-12-11T14:54:35;94590.69;;;-4.58;72.62
35878;BME280;21982;49.804;24.072;2022-12-11T14:57:06;95314.09;;;-0.03;73.18
35878;BME280;21982;49.804;24.072;2022-12-11T14:59:40;95188.69;;;-0.75;72.98
35878;BME280;21982;49.804;24.072;2022-12-11T15:02:27;94869.09;;;-3.06;72.37
35878;BME280;21982;49.804;24.072;2022-12-11T15:05:12;95287.81;;;-0.16;72.94
35878;BME280;21982;49.804;24.072;2022-12-11T19:21:45;95526.78;;;-3.88;79.17
35878;BME280;21982;49.804;24.072;2022-12-11T19:24:14;95354.16;;;-4.49;79.53
35878;BME280;21982;49.804;24.072;2022-12-11T19:26:40;95460.13;;;-3.49;79.50
35878;BME280;21982;49.804;24.072;2022-12-11T19:29:06;95500.84;;;-2.98;79.24
35878;BME280;21982;49.804;24.072;2022-12-11T19:31:35;95457.59;;;-3.06;79.35
35878;BME280;21982;49.804;24.072;2022-12-11T19:34:01;95530.19;;;-2.54;79.35
35878;BME280;21982;49.804;24.072;2022-12-11T19:36:28;95535.28;;;-2.44;78.61
35878;BME280;21982;49.804;24.072;2022-12-11T19:38:55;95443.63;;;-3.13;78.77
35878;BME280;21982;49.804;24.072;2022-12-11T19:41:23;95141.81;;;-4.96;78.05
35878;BME280;21982;49.804;24.072;2022-12-11T19:43:52;95383.81;;;-3.27;78.36
35878;BME280;21982;49.804;24.072;2022-12-11T19:46:19;95179.28;;;-4.39;78.29
35878;BME280;21982;49.804;24.072;2022-12-11T19:48:53;95388.00;;;-2.83;77.96
35878;BME280;21982;49.804;24.072;2022-12-11T19:51:28;95454.59;;;-2.49;77.92
35878;BME280;21982;49.804;24.072;2022-12-11T19:53:55;95287.75;;;-3.50;77.67
35878;BME280;21982;49.804;24.072;2022-12-11T19:56:20;95535.19;;;-2.09;77.94
35878;BME280;21982;49.804;24.072;2022-12-11T19:58:47;95540.72;;;-2.04;77.77
35878;BME280;21982;49.804;24.072;2022-12-11T20:01:20;95540.84;;;-2.05;77.98
35878;BME280;21982;49.804;24.072;2022-12-11T20:03:50;95384.56;;;-3.09;77.50
35878;BME280;21982;49.804;24.072;2022-12-11T20:06:16;95517.38;;;-2.29;77.44
35878;BME280;21982;49.804;24.072;2022-12-11T20:08:41;95504.59;;;-2.31;77.67
35878;BME280;21982;49.804;24.072;2022-12-11T20:11:07;95442.44;;;-2.75;77.50
35878;BME280;21982;49.804;24.072;2022-12-11T20:13:33;95454.47;;;-2.65;77.14
35878;BME280;21982;49.804;24.072;2022-12-11T20:16:04;95452.84;;;-2.66;77.08
35878;BME280;21982;49.804;24.072;2022-12-11T20:18:30;95550.94;;;-2.02;77.11
35878;BME280;21982;49.804;24.072;2022-12-11T20:20:58;95436.91;;;-2.54;76.77
35878;BME280;21982;49.804;24.072;2022-12-11T20:23:24;95542.38;;;-1.94;76.89
35878;BME280;21982;49.804;24.072;2022-12-11T20:25:50;95483.44;;;-2.18;76.85
35878;BME280;21982;49.804;24.072;2022-12-11T20:28:15;95231.00;;;-3.95;76.59
35878;BME280;21982;49.804;24.072;2022-12-11T20:30:40;95382.00;;;-2.83;76.54
35878;BME280;21982;49.804;24.072;2022-12-11T20:33:06;95523.19;;;-2.10;76.49
35878;BME280;21982;49.804;24.072;2022-12-11T20:35:31;95316.75;;;-3.39;76.61
35878;BME280;21982;49.804;24.072;2022-12-11T20:37:56;95486.22;;;-2.38;76.57
35878;BME280;21982;49.804;24.072;2022-12-11T20:40:22;95475.03;;;-2.46;76.53
35878;BME280;21982;49.804;24.072;2022-12-11T20:42:49;95527.44;;;-2.00;76.62
35878;BME280;21982;49.804;24.072;2022-12-11T20:45:15;95496.03;;;-2.23;76.27
35878;BME280;21982;49.804;24.072;2022-12-11T20:47:41;95373.31;;;-3.00;76.13
35878;BME280;21982;49.804;24.072;2022-12-11T20:50:06;95542.31;;;-2.11;76.28
35878;BME280;21982;49.804;24.072;2022-12-11T20:52:33;95555.88;;;-1.91;76.24
35878;BME280;21982;49.804;24.072;2022-12-11T20:54:58;95365.59;;;-3.18;76.09
35878;BME280;21982;49.804;24.072;2022-12-11T20:57:24;95131.63;;;-4.98;75.96
35878;BME280;21982;49.804;24.072;2022-12-11T20:59:49;95424.06;;;-2.89;75.88
35878;BME280;21982;49.804;24.072;2022-12-11T21:02:15;95527.88;;;-2.13;76.31
35878;BME280;21982;49.804;24.072;2022-12-11T21:04:41;95561.09;;;-1.83;75.93
35878;BME280;21982;49.804;24.072;2022-12-11T21:07:07;95561.91;;;-1.82;75.79
35878;BME280;21982;49.804;24.072;2022-12-11T21:09:33;95316.00;;;-3.31;75.75
35878;BME280;21982;49.804;24.072;2022-12-11T21:11:59;95394.03;;;-3.00;75.46
35878;BME280;21982;49.804;24.072;2022-12-11T21:14:26;95511.38;;;-2.30;75.74
35878;BME280;21982;49.804;24.072;2022-12-11T21:16:52;95403.56;;;-3.00;75.67
35878;BME280;21982;49.804;24.072;2022-12-11T21:19:18;95486.38;;;-2.39;75.18
35878;BME280;21982;49.804;24.072;2022-12-11T21:21:45;95521.41;;;-2.09;75.47
35878;BME280;21982;49.804;24.072;2022-12-11T21:24:15;95554.47;;;-1.77;75.63
35878;BME280;21982;49.804;24.072;2022-12-11T21:26:40;95425.63;;;-2.71;75.60
35878;BME280;21982;49.804;24.072;2022-12-11T21:29:06;95445.56;;;-2.45;75.09
35878;BME280;21982;49.804;24.072;2022-12-11T21:31:31;95299.81;;;-3.59;75.40
35878;BME280;21982;49.804;24.072;2022-12-11T21:33:57;95585.31;;;-1.74;75.13
35878;BME280;21982;49.804;24.072;2022-12-11T21:36:22;95630.69;;;-1.78;75.41
35878;BME280;21982;49.804;24.072;2022-12-11T21:38:48;95214.41;;;-4.46;75.62
35878;BME280;21982;49.804;24.072;2022-12-11T21:41:16;95616.75;;;-1.77;75.53
35878;BME280;21982;49.804;24.072;2022-12-11T21:43:43;95624.22;;;-1.74;75.26
35878;BME280;21982;49.804;24.072;2022-12-11T21:46:14;95626.81;;;-1.74;75.17
35878;BME280;21982;49.804;24.072;2022-12-11T21:48:40;95552.56;;;-2.27;75.27
35878;BME280;21982;49.804;24.072;2022-12-11T21:51:11;95506.13;;;-2.46;75.33
35878;BME280;21982;49.804;24.072;2022-12-11T21:53:37;95663.97;;;-1.74;75.35
35878;BME280;21982;49.804;24.072;2022-12-11T21:56:10;95525.53;;;-2.24;75.36
35878;BME280;21982;49.804;24.072;2022-12-11T21:58:37;95569.91;;;-2.02;75.13
35878;BME280;21982;49.804;24.072;2022-12-11T22:01:03;95644.50;;;-1.70;75.62
35878;BME280;21982;49.804;24.072;2022-12-11T22:03:29;95612.38;;;-1.77;75.44
35878;BME280;21982;49.804;24.072;2022-12-11T22:05:54;95569.22;;;-2.04;75.79
35878;BME280;21982;49.804;24.072;2022-12-11T22:08:20;95614.00;;;-1.76;75.27
35878;BME280;21982;49.804;24.072;2022-12-11T22:10:50;95471.81;;;-2.66;75.38
35878;BME280;21982;49.804;24.072;2022-12-11T22:13:16;95506.22;;;-2.56;75.83
35878;BME280;21982;49.804;24.072;2022-12-11T22:15:42;95561.38;;;-2.20;75.56
35878;BME280;21982;49.804;24.072;2022-12-11T22:18:07;95157.22;;;-4.87;74.93
35878;BME280;21982;49.804;24.072;2022-12-11T22:20:33;95619.53;;;-1.71;75.44
35878;BME280;21982;49.804;24.072;2022-12-11T22:22:58;95239.28;;;-3.92;75.41
35878;BME280;21982;49.804;24.072;2022-12-11T22:25:24;95622.94;;;-1.70;75.31
35878;BME280;21982;49.804;24.072;2022-12-11T22:27:50;95582.56;;;-1.98;75.40
35878;BME280;21982;49.804;24.072;2022-12-11T22:30:16;95433.31;;;-2.87;75.51
35878;BME280;21982;49.804;24.072;2022-12-11T22:32:42;95609.97;;;-1.70;75.38
35878;BME280;21982;49.804;24.072;2022-12-11T22:35:10;95580.06;;;-1.82;75.38
35878;BME280;21982;49.804;24.072;2022-12-11T22:37:36;95252.88;;;-4.25;74.81
35878;BME280;21982;49.804;24.072;2022-12-11T22:40:03;95654.06;;;-1.70;75.19
35878;BME280;21982;49.804;24.072;2022-12-11T22:42:30;95417.91;;;-3.14;75.28
35878;BME280;21982;49.804;24.072;2022-12-11T22:44:56;95163.94;;;-4.76;74.57
35878;BME280;21982;49.804;24.072;2022-12-11T22:47:21;95248.44;;;-3.97;75.20
35878;BME280;21982;49.804;24.072;2022-12-11T22:49:46;95137.53;;;-4.70;75.19
35878;BME280;21982;49.804;24.072;2022-12-11T22:52:12;95542.63;;;-2.14;75.25
35878;BME280;21982;49.804;24.072;2022-12-11T22:54:39;95609.28;;;-1.72;75.22
35878;BME280;21982;49.804;24.072;2022-12-11T22:57:05;95602.81;;;-1.76;75.00
35878;BME280;21982;49.804;24.072;2022-12-11T22:59:31;95603.78;;;-1.77;75.21
35878;BME280;21982;49.804;24.072;2022-12-11T23:01:56;95599.72;;;-1.80;75.02
35878;BME280;21982;49.804;24.072;2022-12-11T23:04:22;95592.91;;;-1.81;74.86
35878;BME280;21982;49.804;24.072;2022-12-11T23:06:47;95600.53;;;-1.79;74.63
35878;BME280;21982;49.804;24.072;2022-12-11T23:09:13;95598.53;;;-1.85;74.92
35878;BME280;21982;49.804;24.072;2022-12-11T23:11:38;95592.94;;;-1.98;74.97
35878;BME280;21982;49.804;24.072;2022-12-11T23:14:06;95600.00;;;-1.83;74.71
35878;BME280;21982;49.804;24.072;2022-12-11T23:16:32;95607.28;;;-1.86;75.09
35878;BME280;21982;49.804;24.072;2022-12-11T23:18:58;95609.28;;;-1.80;75.03
35878;BME280;21982;49.804;24.072;2022-12-11T23:21:26;95432.03;;;-2.83;74.79
35878;BME280;21982;49.804;24.072;2022-12-11T23:23:54;95596.31;;;-1.72;75.10
35878;BME280;21982;49.804;24.072;2022-12-11T23:26:20;95613.66;;;-1.73;74.87
35878;BME280;21982;49.804;24.072;2022-12-11T23:28:46;95589.38;;;-1.97;74.45
35878;BME280;21982;49.804;24.072;2022-12-11T23:31:12;95561.88;;;-2.16;74.42
35878;BME280;21982;49.804;24.072;2022-12-11T23:33:38;95566.63;;;-2.12;75.05
35878;BME280;21982;49.804;24.072;2022-12-11T23:36:04;95540.47;;;-2.18;74.49
35878;BME280;21982;49.804;24.072;2022-12-11T23:38:30;95622.94;;;-1.70;74.73
35878;BME280;21982;49.804;24.072;2022-12-11T23:40:57;95463.38;;;-2.68;74.66
35878;BME280;21982;49.804;24.072;2022-12-11T23:43:23;95634.78;;;-1.67;74.62
35878;BME280;21982;49.804;24.072;2022-12-11T23:45:48;95518.59;;;-2.42;74.80
35878;BME280;21982;49.804;24.072;2022-12-11T23:48:14;95615.31;;;-1.72;74.66
35878;BME280;21982;49.804;24.072;2022-12-11T23:50:40;95538.03;;;-2.20;74.31